createdAt,value
2017-11-25T00:00:56.723Z,4.30
2017-11-25T00:03:26.032Z,4.20
2017-11-25T00:05:55.431Z,4.30
2017-11-25T00:08:24.736Z,4.30
2017-11-25T00:10:54.948Z,4.30
2017-11-25T00:13:24.351Z,4.30
2017-11-25T00:15:54.453Z,4.10
2017-11-25T00:18:23.667Z,4.10
2017-11-25T00:20:52.844Z,4.10
2017-11-25T00:23:22.862Z,4.10
2017-11-25T00:25:51.978Z,4.10
2017-11-25T00:28:22.032Z,4.10
2017-11-25T00:30:51.193Z,4.10
2017-11-25T00:33:20.387Z,4.20
2017-11-25T00:35:50.719Z,4.20
2017-11-25T00:38:19.933Z,4.20
2017-11-25T00:40:49.058Z,4.20
2017-11-25T00:43:18.283Z,4.20
2017-11-25T00:45:47.432Z,4.20
2017-11-25T00:48:17.348Z,4.00
2017-11-25T00:50:46.540Z,4.00
2017-11-25T00:53:15.894Z,4.00
2017-11-25T00:55:45.706Z,4.00
2017-11-25T00:58:15.564Z,4.00
2017-11-25T01:00:44.799Z,4.00
2017-11-25T01:03:13.934Z,4.00
2017-11-25T01:05:43.972Z,4.10
2017-11-25T01:08:13.157Z,4.10
2017-11-25T01:10:42.358Z,4.00
2017-11-25T01:13:11.867Z,4.00
2017-11-25T01:15:40.988Z,4.10
2017-11-25T01:18:10.162Z,4.10
2017-11-25T01:20:39.345Z,4.20
2017-11-25T01:23:09.331Z,4.30
2017-11-25T01:25:38.609Z,4.30
2017-11-25T01:28:08.764Z,4.20
2017-11-25T01:30:37.962Z,4.10
2017-11-25T01:33:07.064Z,4.20
2017-11-25T01:35:36.296Z,4.20
2017-11-25T01:38:06.248Z,4.20
2017-11-25T01:40:35.405Z,4.20
2017-11-25T01:43:04.590Z,4.20
2017-11-25T01:45:33.704Z,4.20
2017-11-25T01:48:03.639Z,4.20
2017-11-25T01:50:32.916Z,4.20
2017-11-25T01:53:02.178Z,4.20
2017-11-25T01:55:31.397Z,4.20
2017-11-25T01:58:00.829Z,4.10
2017-11-25T02:00:30.225Z,4.10
2017-11-25T02:02:59.418Z,4.10
2017-11-25T02:05:29.628Z,4.00
2017-11-25T02:07:58.846Z,4.00
2017-11-25T02:10:28.148Z,4.00
2017-11-25T02:12:58.482Z,4.00
2017-11-25T02:15:27.901Z,4.00
2017-11-25T02:17:57.221Z,4.10
2017-11-25T02:20:26.934Z,4.20
2017-11-25T02:22:56.166Z,4.20
2017-11-25T02:25:25.808Z,4.20
2017-11-25T02:27:55.235Z,4.20
2017-11-25T02:30:24.494Z,4.20
2017-11-25T02:32:53.731Z,4.20
2017-11-25T02:35:23.347Z,4.20
2017-11-25T02:37:52.588Z,4.10
2017-11-25T02:40:21.900Z,4.10
2017-11-25T02:42:51.146Z,4.10
2017-11-25T02:45:20.385Z,4.10
2017-11-25T02:47:49.548Z,4.10
2017-11-25T02:50:19.039Z,4.10
2017-11-25T02:52:48.193Z,4.20
2017-11-25T02:55:17.413Z,4.20
2017-11-25T02:57:46.686Z,4.20
2017-11-25T03:00:16.758Z,4.20
2017-11-25T03:02:45.904Z,4.20
2017-11-25T03:05:15.897Z,4.30
2017-11-25T03:07:45.523Z,4.30
2017-11-25T03:10:15.570Z,4.30
2017-11-25T03:12:44.843Z,4.30
2017-11-25T03:15:14.058Z,4.40
2017-11-25T03:17:43.211Z,4.40
2017-11-25T03:20:12.352Z,4.40
2017-11-25T03:22:41.689Z,4.50
2017-11-25T03:25:10.830Z,4.40
2017-11-25T03:27:40.999Z,4.50
2017-11-25T03:30:10.166Z,4.50
2017-11-25T03:32:39.354Z,4.50
2017-11-25T03:35:08.572Z,4.50
2017-11-25T03:37:37.746Z,4.50
2017-11-25T03:40:06.938Z,4.40
2017-11-25T03:42:37.545Z,4.40
2017-11-25T03:45:06.639Z,4.40
2017-11-25T03:47:35.798Z,4.40
2017-11-25T03:50:05.724Z,4.30
2017-11-25T03:52:35.636Z,4.30
2017-11-25T03:55:04.815Z,4.30
2017-11-25T03:57:33.983Z,4.30
2017-11-25T04:00:03.321Z,4.30
2017-11-25T04:02:32.477Z,4.30
2017-11-25T04:05:01.766Z,4.30
2017-11-25T04:07:30.981Z,4.30
2017-11-25T04:10:00.181Z,4.30
2017-11-25T04:12:29.414Z,4.30
2017-11-25T04:14:58.632Z,4.20
2017-11-25T04:17:28.624Z,4.20
2017-11-25T04:19:57.840Z,4.20
2017-11-25T04:22:27.230Z,4.20
2017-11-25T04:24:57.141Z,4.20
2017-11-25T04:27:27.658Z,4.20
2017-11-25T04:29:56.849Z,4.20
2017-11-25T04:32:26.240Z,4.20
2017-11-25T04:34:56.235Z,4.10
2017-11-25T04:37:27.143Z,4.10
2017-11-25T04:39:56.282Z,4.10
2017-11-25T04:42:26.360Z,4.20
2017-11-25T04:47:37.094Z,4.20
2017-11-25T04:50:06.242Z,4.20
2017-11-25T04:52:35.441Z,4.30
2017-11-25T04:55:04.816Z,4.30
2017-11-25T04:57:35.039Z,4.30
2017-11-25T05:00:04.307Z,4.20
2017-11-25T05:02:34.253Z,4.10
2017-11-25T05:05:04.352Z,4.10
2017-11-25T05:07:33.513Z,4.00
2017-11-25T05:10:02.849Z,4.00
2017-11-25T05:12:31.988Z,4.00
2017-11-25T05:15:01.134Z,4.00
2017-11-25T05:17:30.381Z,4.00
2017-11-25T05:19:59.478Z,4.10
2017-11-25T05:22:28.605Z,4.10
2017-11-25T05:24:57.854Z,4.10
2017-11-25T05:27:27.073Z,4.20
2017-11-25T05:29:56.987Z,4.30
2017-11-25T05:32:26.496Z,4.30
2017-11-25T05:34:56.614Z,4.30
2017-11-25T05:37:25.756Z,4.30
2017-11-25T05:39:55.825Z,4.40
2017-11-25T05:42:25.128Z,4.40
2017-11-25T05:44:54.275Z,4.40
2017-11-25T05:47:23.522Z,4.50
2017-11-25T05:49:53.491Z,4.40
2017-11-25T05:52:22.664Z,4.40
2017-11-25T05:54:52.143Z,4.50
2017-11-25T05:57:21.287Z,4.60
2017-11-25T05:59:50.432Z,4.60
2017-11-25T06:02:19.577Z,4.50
2017-11-25T06:04:48.698Z,4.50
2017-11-25T06:07:17.874Z,4.50
2017-11-25T06:09:47.419Z,4.40
2017-11-25T06:12:16.543Z,4.40
2017-11-25T06:14:45.694Z,4.40
2017-11-25T06:17:15.042Z,4.30
2017-11-25T06:19:44.173Z,4.40
2017-11-25T06:22:13.253Z,4.40
2017-11-25T06:24:43.508Z,4.40
2017-11-25T06:27:12.596Z,4.50
2017-11-25T06:29:41.731Z,4.50
2017-11-25T06:32:10.868Z,4.40
2017-11-25T06:34:39.991Z,4.40
2017-11-25T06:37:09.121Z,4.40
2017-11-25T06:39:38.275Z,4.40
2017-11-25T06:42:08.170Z,4.30
2017-11-25T06:44:37.359Z,4.30
2017-11-25T06:47:06.522Z,4.40
2017-11-25T06:49:35.622Z,4.30
2017-11-25T06:52:04.779Z,4.30
2017-11-25T06:54:34.336Z,4.30
2017-11-25T06:57:04.270Z,4.40
2017-11-25T06:59:33.396Z,4.40
2017-11-25T07:02:02.945Z,4.30
2017-11-25T07:04:33.473Z,4.30
2017-11-25T07:07:03.490Z,4.20
2017-11-25T07:09:32.614Z,4.30
2017-11-25T07:12:02.586Z,4.30
2017-11-25T07:14:32.020Z,4.30
2017-11-25T07:17:01.210Z,4.30
2017-11-25T07:19:30.353Z,4.40
2017-11-25T07:21:59.991Z,4.40
2017-11-25T07:24:29.192Z,4.40
2017-11-25T07:26:58.380Z,4.30
2017-11-25T07:29:27.575Z,4.30
2017-11-25T07:31:56.911Z,4.30
2017-11-25T07:34:26.134Z,4.20
2017-11-25T07:36:55.491Z,4.30
2017-11-25T07:39:24.614Z,4.30
2017-11-25T07:41:53.804Z,4.20
2017-11-25T07:44:23.333Z,4.20
2017-11-25T07:46:53.334Z,4.20
2017-11-25T07:49:23.367Z,4.20
2017-11-25T07:51:52.781Z,4.20
2017-11-25T07:54:23.297Z,4.10
2017-11-25T07:56:52.504Z,4.10
2017-11-25T07:59:22.802Z,4.10
2017-11-25T08:01:52.971Z,4.10
2017-11-25T08:04:22.254Z,4.10
2017-11-25T08:06:52.464Z,4.10
2017-11-25T08:09:22.389Z,4.10
2017-11-25T08:11:51.541Z,4.10
2017-11-25T08:14:20.846Z,4.10
2017-11-25T08:16:49.978Z,4.20
2017-11-25T08:19:23.169Z,4.10
2017-11-25T08:21:52.325Z,4.10
2017-11-25T08:24:22.367Z,4.00
2017-11-25T08:26:51.769Z,4.00
2017-11-25T08:29:20.860Z,3.90
2017-11-25T08:31:50.052Z,4.00
2017-11-25T08:34:19.189Z,4.00
2017-11-25T08:36:48.295Z,4.10
2017-11-25T08:39:19.211Z,4.10
2017-11-25T08:41:48.507Z,4.10
2017-11-25T08:44:17.607Z,4.20
2017-11-25T08:46:46.899Z,4.10
2017-11-25T08:49:16.094Z,4.20
2017-11-25T08:51:46.824Z,4.20
2017-11-25T08:54:16.910Z,4.20
2017-11-25T08:56:46.087Z,4.20
2017-11-25T08:59:15.234Z,4.20
2017-11-25T09:01:45.267Z,4.20
2017-11-25T09:04:14.437Z,4.20
2017-11-25T09:06:43.561Z,4.30
2017-11-25T09:09:13.430Z,4.10
2017-11-25T09:11:42.565Z,4.10
2017-11-25T09:14:12.082Z,4.20
2017-11-25T09:16:41.179Z,4.30
2017-11-25T09:19:10.405Z,4.30
2017-11-25T09:21:39.567Z,4.20
2017-11-25T09:24:08.770Z,4.20
2017-11-25T09:26:37.900Z,4.20
2017-11-25T09:29:07.146Z,4.20
2017-11-25T09:31:36.269Z,4.30
2017-11-25T09:34:08.380Z,4.40
2017-11-25T09:36:37.574Z,4.40
2017-11-25T09:39:14.790Z,4.40
2017-11-25T09:41:43.900Z,4.30
2017-11-25T09:44:13.498Z,4.10
2017-11-25T09:46:42.686Z,4.10
2017-11-25T09:49:11.827Z,4.00
2017-11-25T09:51:40.999Z,3.90
2017-11-25T09:54:10.201Z,4.00
2017-11-25T09:56:40.305Z,3.90
2017-11-25T09:59:09.524Z,3.90
2017-11-25T10:01:38.795Z,3.90
2017-11-25T10:04:14.566Z,3.90
2017-11-25T10:06:44.865Z,4.00
2017-11-25T10:09:13.958Z,3.90
2017-11-25T10:11:43.101Z,4.00
2017-11-25T10:14:14.507Z,4.10
2017-11-25T10:16:43.626Z,4.10
2017-11-25T10:19:12.729Z,4.30
2017-11-25T10:21:42.032Z,4.40
2017-11-25T10:24:11.208Z,4.50
2017-11-25T10:26:41.350Z,4.60
2017-11-25T10:29:11.360Z,4.80
2017-11-25T10:31:40.539Z,4.80
2017-11-25T10:34:09.759Z,4.90
2017-11-25T10:36:38.958Z,5.00
2017-11-25T10:39:08.133Z,5.00
2017-11-25T10:41:38.869Z,5.00
2017-11-25T10:44:08.127Z,5.00
2017-11-25T10:46:37.288Z,5.00
2017-11-25T10:49:06.695Z,5.00
2017-11-25T10:51:36.643Z,5.00
2017-11-25T10:54:05.914Z,5.10
2017-11-25T10:56:35.148Z,5.10
2017-11-25T10:59:04.462Z,5.20
2017-11-25T11:01:33.809Z,5.00
2017-11-25T11:04:03.015Z,5.20
2017-11-25T11:06:32.338Z,5.20
2017-11-25T11:09:01.481Z,5.30
2017-11-25T11:11:30.683Z,5.30
2017-11-25T11:14:00.090Z,5.20
2017-11-25T11:16:29.385Z,5.40
2017-11-25T11:18:58.583Z,5.40
2017-11-25T11:21:27.970Z,5.40
2017-11-25T11:23:57.230Z,5.30
2017-11-25T11:26:27.303Z,5.10
2017-11-25T11:28:56.945Z,5.10
2017-11-25T11:31:28.241Z,5.10
2017-11-25T11:33:58.100Z,5.10
2017-11-25T11:36:27.522Z,5.20
2017-11-25T11:38:56.914Z,5.20
2017-11-25T11:41:27.082Z,5.00
2017-11-25T11:43:56.349Z,5.00
2017-11-25T11:46:25.543Z,5.00
2017-11-25T11:48:54.929Z,5.00
2017-11-25T11:51:24.947Z,5.20
2017-11-25T11:53:54.145Z,5.20
2017-11-25T11:56:23.472Z,5.20
2017-11-25T11:58:52.900Z,5.30
2017-11-25T12:01:22.556Z,5.40
2017-11-25T12:03:52.185Z,5.50
2017-11-25T12:06:21.492Z,5.40
2017-11-25T12:08:50.722Z,5.40
2017-11-25T12:11:20.704Z,5.30
2017-11-25T12:13:49.872Z,5.40
2017-11-25T12:16:18.999Z,5.40
2017-11-25T12:18:49.068Z,5.40
2017-11-25T12:21:18.969Z,5.40
2017-11-25T12:23:48.944Z,5.50
2017-11-25T12:26:20.025Z,5.50
2017-11-25T12:28:49.162Z,5.40
2017-11-25T12:31:18.947Z,5.10
2017-11-25T12:33:49.855Z,5.20
2017-11-25T12:36:19.820Z,5.20
2017-11-25T12:38:49.039Z,5.20
2017-11-25T12:41:19.784Z,5.20
2017-11-25T12:43:49.839Z,5.10
2017-11-25T12:46:19.783Z,5.10
2017-11-25T12:48:49.741Z,5.10
2017-11-25T12:51:18.993Z,5.10
2017-11-25T12:53:48.151Z,5.20
2017-11-25T12:56:17.445Z,5.30
2017-11-25T12:58:46.944Z,5.30
2017-11-25T13:01:16.636Z,5.30
2017-11-25T13:03:45.784Z,5.20
2017-11-25T13:06:15.057Z,5.20
2017-11-25T13:08:44.662Z,5.20
2017-11-25T13:11:13.855Z,5.20
2017-11-25T13:13:43.030Z,5.30
2017-11-25T13:16:12.335Z,5.40
2017-11-25T13:18:42.892Z,5.20
2017-11-25T13:21:12.116Z,5.30
2017-11-25T13:23:42.103Z,5.30
2017-11-25T13:26:11.301Z,5.30
2017-11-25T13:28:40.500Z,5.50
2017-11-25T13:31:10.619Z,5.60
2017-11-25T13:33:40.119Z,5.60
2017-11-25T13:36:09.233Z,5.60
2017-11-25T13:38:38.393Z,5.60
2017-11-25T13:41:07.570Z,5.50
2017-11-25T13:43:37.465Z,5.40
2017-11-25T13:46:07.502Z,5.40
2017-11-25T13:48:37.531Z,5.40
2017-11-25T13:51:06.825Z,5.40
2017-11-25T13:53:36.044Z,5.40
2017-11-25T13:56:05.329Z,5.40
2017-11-25T13:58:34.525Z,5.50
2017-11-25T14:01:03.766Z,5.40
2017-11-25T14:03:33.336Z,5.50
2017-11-25T14:06:02.606Z,5.30
2017-11-25T14:08:31.922Z,5.30
2017-11-25T14:11:01.161Z,5.30
2017-11-25T14:13:31.707Z,5.30
2017-11-25T14:16:01.723Z,5.20
2017-11-25T14:18:31.869Z,5.10
2017-11-25T14:21:01.065Z,5.10
2017-11-25T14:23:31.075Z,5.00
2017-11-25T14:26:00.519Z,5.00
2017-11-25T14:28:30.488Z,5.00
2017-11-25T14:30:59.726Z,5.00
2017-11-25T14:33:29.724Z,4.90
2017-11-25T14:35:58.955Z,4.90
2017-11-25T14:38:28.107Z,4.80
2017-11-25T14:40:57.337Z,4.80
2017-11-25T14:43:27.509Z,4.70
2017-11-25T14:45:56.688Z,4.70
2017-11-25T14:48:27.595Z,4.70
2017-11-25T14:50:56.842Z,4.70
2017-11-25T14:53:27.181Z,4.70
2017-11-25T14:55:56.567Z,4.70
2017-11-25T14:58:25.802Z,4.70
2017-11-25T15:00:55.057Z,4.60
2017-11-25T15:03:24.534Z,4.70
2017-11-25T15:05:54.069Z,4.80
2017-11-25T15:08:23.353Z,4.70
2017-11-25T15:10:53.688Z,4.60
2017-11-25T15:13:22.902Z,4.50
2017-11-25T15:15:53.033Z,4.40
2017-11-25T15:18:24.180Z,4.30
2017-11-25T15:20:53.421Z,4.40
2017-11-25T15:23:22.957Z,4.40
2017-11-25T15:25:52.272Z,4.40
2017-11-25T15:28:21.584Z,4.50
2017-11-25T15:30:51.704Z,4.50
2017-11-25T15:33:21.774Z,4.50
2017-11-25T15:35:51.177Z,4.60
2017-11-25T15:38:20.496Z,4.50
2017-11-25T15:40:49.670Z,4.50
2017-11-25T15:43:19.920Z,4.50
2017-11-25T15:45:49.952Z,4.60
2017-11-25T15:48:19.210Z,4.50
2017-11-25T15:50:48.354Z,4.50
2017-11-25T15:53:17.594Z,4.60
2017-11-25T15:55:46.800Z,4.60
2017-11-25T15:58:16.176Z,4.60
2017-11-25T16:00:46.777Z,4.60
2017-11-25T16:03:16.023Z,4.50
2017-11-25T16:05:45.132Z,4.60
2017-11-25T16:08:14.273Z,4.60
2017-11-25T16:10:43.536Z,4.60
2017-11-25T16:13:13.533Z,4.70
2017-11-25T16:15:43.116Z,4.70
2017-11-25T16:18:12.990Z,4.70
2017-11-25T16:20:52.589Z,4.70
2017-11-25T16:23:22.912Z,4.80
2017-11-25T16:25:53.017Z,4.80
2017-11-25T16:28:22.309Z,4.70
2017-11-25T16:30:51.679Z,4.70
2017-11-25T16:33:20.766Z,4.70
2017-11-25T16:35:49.917Z,4.70
2017-11-25T16:38:19.977Z,4.60
2017-11-25T16:40:49.172Z,4.60
2017-11-25T16:43:18.293Z,4.60
2017-11-25T16:45:47.873Z,4.60
2017-11-25T16:48:16.995Z,4.60
2017-11-25T16:50:46.938Z,4.60
2017-11-25T16:53:16.585Z,4.60
2017-11-25T16:55:46.796Z,4.60
2017-11-25T16:58:15.914Z,4.60
2017-11-25T17:00:45.857Z,4.50
2017-11-25T17:03:15.086Z,4.50
2017-11-25T17:05:44.224Z,4.50
2017-11-25T17:08:13.526Z,4.50
2017-11-25T17:10:42.673Z,4.50
2017-11-25T17:13:11.893Z,4.50
2017-11-25T17:15:41.734Z,4.40
2017-11-25T17:18:10.860Z,4.40
2017-11-25T17:20:39.973Z,4.40
2017-11-25T17:23:09.489Z,4.40
2017-11-25T17:25:38.632Z,4.40
2017-11-25T17:28:07.748Z,4.30
2017-11-25T17:30:36.973Z,4.30
2017-11-25T17:33:06.481Z,4.30
2017-11-25T17:35:35.602Z,4.30
2017-11-25T17:38:04.793Z,4.30
2017-11-25T17:40:33.961Z,4.30
2017-11-25T17:43:05.648Z,4.30
2017-11-25T17:45:34.924Z,4.30
2017-11-25T17:48:04.241Z,4.30
2017-11-25T17:50:33.509Z,4.20
2017-11-25T17:53:03.310Z,4.20
2017-11-25T17:55:32.742Z,4.20
2017-11-25T17:58:02.781Z,4.20
2017-11-25T18:00:32.918Z,4.10
2017-11-25T18:03:02.558Z,4.10
2017-11-25T18:05:32.132Z,4.10
2017-11-25T18:08:02.304Z,4.10
2017-11-25T18:10:32.192Z,4.10
2017-11-25T18:13:01.520Z,4.10
2017-11-25T18:15:31.098Z,4.10
2017-11-25T18:18:00.356Z,4.10
2017-11-25T18:20:29.637Z,4.00
2017-11-25T18:22:58.955Z,4.10
2017-11-25T18:25:30.173Z,4.10
2017-11-25T18:27:59.613Z,4.10
2017-11-25T18:30:28.801Z,4.10
2017-11-25T18:32:58.546Z,4.10
2017-11-25T18:35:28.220Z,4.10
2017-11-25T18:37:58.208Z,4.10
2017-11-25T18:40:27.505Z,4.20
2017-11-25T18:42:57.067Z,4.10
2017-11-25T18:45:27.619Z,4.20
2017-11-25T18:47:57.055Z,4.20
2017-11-25T18:50:26.458Z,4.20
2017-11-25T18:52:55.868Z,4.30
2017-11-25T18:55:25.201Z,4.30
2017-11-25T18:57:54.605Z,4.40
2017-11-25T19:00:25.124Z,4.40
2017-11-25T19:02:54.625Z,4.40
2017-11-25T19:05:24.232Z,4.50
2017-11-25T19:07:53.442Z,4.50
2017-11-25T19:10:22.681Z,4.50
2017-11-25T19:12:51.938Z,4.50
2017-11-25T19:15:21.215Z,4.60
2017-11-25T19:17:52.014Z,4.60
2017-11-25T19:20:21.874Z,4.60
2017-11-25T19:22:51.273Z,4.70
2017-11-25T19:25:21.221Z,4.60
2017-11-25T19:27:51.243Z,4.60
2017-11-25T19:30:20.364Z,4.60
2017-11-25T19:32:49.562Z,4.60
2017-11-25T19:35:18.888Z,4.60
2017-11-25T19:37:48.004Z,4.70
2017-11-25T19:40:17.094Z,4.60
2017-11-25T19:42:46.455Z,4.60
2017-11-25T19:45:15.595Z,4.60
2017-11-25T19:47:44.692Z,4.60
2017-11-25T19:50:13.848Z,4.60
2017-11-25T19:52:43.071Z,4.60
2017-11-25T19:55:12.205Z,4.60
2017-11-25T19:57:42.256Z,4.50
2017-11-25T20:00:11.447Z,4.40
2017-11-25T20:02:40.718Z,4.30
2017-11-25T20:05:11.314Z,4.40
2017-11-25T20:07:52.807Z,4.40
2017-11-25T20:10:23.836Z,4.30
2017-11-25T20:12:53.502Z,4.30
2017-11-25T20:15:22.832Z,4.30
2017-11-25T20:17:52.193Z,4.30
2017-11-25T20:20:21.493Z,4.20
2017-11-25T20:22:50.711Z,4.20
2017-11-25T20:25:21.118Z,4.10
2017-11-25T20:27:50.254Z,4.10
2017-11-25T20:30:19.414Z,4.10
2017-11-25T20:32:48.716Z,4.10
2017-11-25T20:35:17.919Z,4.10
2017-11-25T20:37:47.055Z,4.10
2017-11-25T20:40:16.620Z,4.10
2017-11-25T20:42:45.719Z,4.10
2017-11-25T20:45:15.662Z,4.00
2017-11-25T20:47:44.896Z,4.00
2017-11-25T20:50:14.914Z,4.10
2017-11-25T20:52:44.876Z,4.10
2017-11-25T20:55:14.632Z,4.10
2017-11-25T20:57:43.713Z,4.10
2017-11-25T21:00:12.976Z,4.10
2017-11-25T21:02:43.267Z,4.10
2017-11-25T21:05:12.485Z,4.10
2017-11-25T21:07:41.558Z,4.10
2017-11-25T21:10:10.881Z,4.20
2017-11-25T21:12:40.021Z,4.20
2017-11-25T21:15:10.304Z,4.20
2017-11-25T21:17:41.014Z,4.10
2017-11-25T21:20:10.150Z,4.10
2017-11-25T21:22:43.347Z,4.10
2017-11-25T21:25:14.405Z,4.20
2017-11-25T21:27:43.536Z,4.10
2017-11-25T21:30:13.493Z,4.20
2017-11-25T21:32:42.588Z,4.30
2017-11-25T21:35:11.714Z,4.20
2017-11-25T21:37:43.060Z,4.20
2017-11-25T21:40:12.189Z,4.20
2017-11-25T21:42:42.177Z,4.20
2017-11-25T21:45:11.316Z,4.20
2017-11-25T21:47:40.496Z,4.20
2017-11-25T21:50:11.662Z,4.20
2017-11-25T21:52:41.665Z,4.20
2017-11-25T21:55:11.520Z,4.10
2017-11-25T21:57:40.684Z,4.10
2017-11-25T22:00:09.857Z,4.00
2017-11-25T22:02:52.405Z,4.00
2017-11-25T22:05:21.683Z,4.00
2017-11-25T22:07:51.057Z,4.00
2017-11-25T22:10:21.129Z,4.00
2017-11-25T22:12:52.830Z,4.00
2017-11-25T22:15:23.336Z,4.00
2017-11-25T22:17:52.834Z,3.90
2017-11-25T22:20:22.241Z,4.00
2017-11-25T22:22:54.433Z,4.00
2017-11-25T22:25:23.773Z,4.00
2017-11-25T22:27:52.919Z,4.00
2017-11-25T22:30:22.102Z,4.00
2017-11-25T22:32:52.051Z,4.00
2017-11-25T22:35:21.200Z,4.00
2017-11-25T22:37:52.015Z,4.00
2017-11-25T22:40:21.871Z,4.00
2017-11-25T22:42:51.552Z,4.10
2017-11-25T22:45:20.744Z,4.20
2017-11-25T22:47:50.783Z,4.50
2017-11-25T22:50:20.720Z,4.50
2017-11-25T22:52:49.938Z,4.40
2017-11-25T22:55:19.167Z,4.30
2017-11-25T22:57:49.052Z,4.20
2017-11-25T23:00:19.181Z,4.30
2017-11-25T23:02:48.401Z,4.20
2017-11-25T23:05:18.554Z,4.10
2017-11-25T23:07:48.148Z,4.10
2017-11-25T23:10:17.769Z,4.10
2017-11-25T23:12:46.896Z,4.00
2017-11-25T23:15:16.717Z,4.00
2017-11-25T23:17:47.039Z,3.90
2017-11-25T23:20:16.137Z,3.90
2017-11-25T23:22:45.366Z,3.80
2017-11-25T23:25:14.903Z,3.70
2017-11-25T23:27:43.988Z,3.60
2017-11-25T23:30:14.057Z,3.60
2017-11-25T23:32:43.660Z,3.60
2017-11-25T23:35:12.760Z,3.60
2017-11-25T23:37:41.862Z,3.60
2017-11-25T23:40:11.001Z,3.60
2017-11-25T23:42:40.188Z,3.60
2017-11-25T23:45:09.281Z,3.50
2017-11-25T23:47:39.082Z,3.50
2017-11-25T23:50:08.949Z,3.30
2017-11-25T23:52:38.871Z,3.30
2017-11-25T23:55:08.002Z,3.30
2017-11-25T23:57:37.117Z,3.30
